createdAt,value
2019-05-17T00:01:50.360Z,12.60
2019-05-17T00:04:53.288Z,12.60
2019-05-17T00:07:56.772Z,12.60
2019-05-17T00:11:00.790Z,12.60
2019-05-17T00:14:03.747Z,12.60
2019-05-17T00:17:06.912Z,12.60
2019-05-17T00:20:10.112Z,12.60
2019-05-17T00:23:13.052Z,12.60
2019-05-17T00:26:16.431Z,12.50
2019-05-17T00:29:19.775Z,12.50
2019-05-17T00:32:22.683Z,12.50
2019-05-17T00:35:26.808Z,12.50
2019-05-17T00:38:29.924Z,12.60
2019-05-17T00:41:32.977Z,12.60
2019-05-17T00:44:36.584Z,12.50
2019-05-17T00:47:39.844Z,12.60
2019-05-17T00:50:42.776Z,12.50
2019-05-17T00:53:46.856Z,12.50
2019-05-17T00:56:50.354Z,12.50
2019-05-17T00:59:53.263Z,12.50
2019-05-17T01:02:57.331Z,12.50
2019-05-17T01:06:00.764Z,12.50
2019-05-17T01:09:07.808Z,12.40
2019-05-17T01:12:11.224Z,12.40
2019-05-17T01:15:16.730Z,12.40
2019-05-17T01:18:19.839Z,12.40
2019-05-17T01:21:23.072Z,12.40
2019-05-17T01:24:27.435Z,12.40
2019-05-17T01:27:30.431Z,12.40
2019-05-17T01:30:33.364Z,12.40
2019-05-17T01:33:36.873Z,12.40
2019-05-17T01:36:40.621Z,12.30
2019-05-17T01:39:43.551Z,12.30
2019-05-17T01:42:46.772Z,12.30
2019-05-17T01:45:49.911Z,12.40
2019-05-17T01:48:53.182Z,12.40
2019-05-17T01:51:56.823Z,12.40
2019-05-17T01:55:00.476Z,12.30
2019-05-17T01:58:03.725Z,12.30
2019-05-17T02:01:07.690Z,12.30
2019-05-17T02:04:10.838Z,12.30
2019-05-17T02:07:13.766Z,12.30
2019-05-17T02:10:17.095Z,12.30
2019-05-17T02:13:20.345Z,12.30
2019-05-17T02:16:23.628Z,12.30
2019-05-17T02:19:26.672Z,12.30
2019-05-17T02:22:29.655Z,12.30
2019-05-17T02:25:32.589Z,12.30
2019-05-17T02:28:35.509Z,12.30
2019-05-17T02:31:43.224Z,12.30
2019-05-17T02:34:44.406Z,12.30
2019-05-17T02:37:47.730Z,12.20
2019-05-17T02:40:53.293Z,12.30
2019-05-17T02:43:55.479Z,12.30
2019-05-17T02:46:58.396Z,12.30
2019-05-17T02:50:05.213Z,12.20
2019-05-17T02:53:06.140Z,12.20
2019-05-17T02:56:13.248Z,12.20
2019-05-17T02:59:14.675Z,12.20
2019-05-17T03:02:17.588Z,12.20
2019-05-17T03:05:23.272Z,12.20
2019-05-17T03:08:25.444Z,12.20
2019-05-17T03:11:28.757Z,12.20
2019-05-17T03:14:32.793Z,12.20
2019-05-17T03:17:35.979Z,12.20
2019-05-17T03:20:38.996Z,12.20
2019-05-17T03:23:43.526Z,12.20
2019-05-17T03:26:47.152Z,12.20
2019-05-17T03:29:53.531Z,12.20
2019-05-17T03:32:56.798Z,12.10
2019-05-17T03:36:06.261Z,12.10
2019-05-17T03:39:06.663Z,12.20
2019-05-17T03:42:12.959Z,12.20
2019-05-17T03:45:14.792Z,12.20
2019-05-17T03:48:17.722Z,12.20
2019-05-17T03:51:23.318Z,12.10
2019-05-17T03:54:26.486Z,12.10
2019-05-17T03:57:32.129Z,12.10
2019-05-17T04:00:35.671Z,12.10
2019-05-17T04:03:38.798Z,12.10
2019-05-17T04:06:43.578Z,12.10
2019-05-17T04:09:46.595Z,12.10
2019-05-17T04:12:52.733Z,12.10
2019-05-17T04:15:55.099Z,12.10
2019-05-17T04:18:58.023Z,12.10
2019-05-17T04:22:03.502Z,12.10
2019-05-17T04:25:05.937Z,12.10
2019-05-17T04:28:08.903Z,12.10
2019-05-17T04:31:13.416Z,12.10
2019-05-17T04:34:16.616Z,12.10
2019-05-17T04:37:22.618Z,12.10
2019-05-17T04:40:24.366Z,12.10
2019-05-17T04:43:27.286Z,12.20
2019-05-17T04:46:32.617Z,12.10
2019-05-17T04:49:35.468Z,12.10
2019-05-17T04:52:38.393Z,12.10
2019-05-17T04:55:43.189Z,12.10
2019-05-17T04:58:50.180Z,12.10
2019-05-17T05:01:53.684Z,12.10
2019-05-17T05:04:56.910Z,12.10
2019-05-17T05:08:02.689Z,12.10
2019-05-17T05:11:04.657Z,12.20
2019-05-17T05:14:07.951Z,12.20
2019-05-17T05:17:12.751Z,12.10
2019-05-17T05:20:15.825Z,12.10
2019-05-17T05:23:18.789Z,12.10
2019-05-17T05:26:22.224Z,12.10
2019-05-17T05:29:25.677Z,12.10
2019-05-17T05:32:28.588Z,12.10
2019-05-17T05:35:31.846Z,12.20
2019-05-17T05:38:35.941Z,12.20
2019-05-17T05:41:38.855Z,12.30
2019-05-17T05:44:42.171Z,12.20
2019-05-17T05:47:46.263Z,12.20
2019-05-17T05:50:49.178Z,12.20
2019-05-17T05:53:52.476Z,12.20
2019-05-17T05:56:55.477Z,12.10
2019-05-17T05:59:58.501Z,12.10
2019-05-17T06:03:04.232Z,12.10
2019-05-17T06:06:06.237Z,12.20
2019-05-17T06:09:11.801Z,12.20
2019-05-17T06:12:23.616Z,12.20
2019-05-17T06:15:21.964Z,12.20
2019-05-17T06:18:24.946Z,12.20
2019-05-17T06:21:27.877Z,12.30
2019-05-17T06:24:31.968Z,12.40
2019-05-17T06:27:35.029Z,12.40
2019-05-17T06:30:37.967Z,12.40
2019-05-17T06:33:42.217Z,12.40
2019-05-17T06:36:46.304Z,12.40
2019-05-17T06:39:49.245Z,12.40
2019-05-17T06:42:52.599Z,12.40
2019-05-17T06:45:55.605Z,12.40
2019-05-17T06:48:58.505Z,12.50
2019-05-17T06:52:02.465Z,12.50
2019-05-17T06:55:06.035Z,12.50
2019-05-17T06:58:11.604Z,12.60
2019-05-17T07:01:13.888Z,12.60
2019-05-17T07:04:19.233Z,12.60
2019-05-17T07:07:30.135Z,12.60
2019-05-17T07:10:32.676Z,12.60
2019-05-17T07:13:35.625Z,12.70
2019-05-17T07:16:39.846Z,12.70
2019-05-17T07:19:42.876Z,12.80
2019-05-17T07:22:45.823Z,12.80
2019-05-17T07:25:50.406Z,12.80
2019-05-17T07:28:53.512Z,12.90
2019-05-17T07:31:56.467Z,12.90
2019-05-17T07:35:00.074Z,13.00
2019-05-17T07:38:03.317Z,13.00
2019-05-17T07:41:06.250Z,13.10
2019-05-17T07:44:09.897Z,13.00
2019-05-17T07:47:13.115Z,13.10
2019-05-17T07:50:16.340Z,13.10
2019-05-17T07:53:20.189Z,13.10
2019-05-17T07:56:23.414Z,13.20
2019-05-17T07:59:26.323Z,13.10
2019-05-17T08:02:30.640Z,13.20
2019-05-17T08:05:33.896Z,13.20
2019-05-17T08:08:36.822Z,13.20
2019-05-17T08:11:39.792Z,13.10
2019-05-17T08:14:42.709Z,13.10
2019-05-17T08:17:45.630Z,13.10
2019-05-17T08:20:50.127Z,13.20
2019-05-17T08:23:53.276Z,13.10
2019-05-17T08:26:56.197Z,13.10
2019-05-17T08:29:59.869Z,13.10
2019-05-17T08:33:03.793Z,13.10
2019-05-17T08:36:06.722Z,13.20
2019-05-17T08:39:10.237Z,13.10
2019-05-17T08:42:13.559Z,13.20
2019-05-17T08:45:16.539Z,13.20
2019-05-17T08:48:20.636Z,13.20
2019-05-17T08:51:23.787Z,13.10
2019-05-17T08:54:26.703Z,13.10
2019-05-17T08:57:30.312Z,13.10
2019-05-17T09:00:33.534Z,13.10
2019-05-17T09:03:36.557Z,13.20
2019-05-17T09:06:39.903Z,13.20
2019-05-17T09:09:42.849Z,13.20
2019-05-17T09:12:45.842Z,13.10
2019-05-17T09:15:49.396Z,13.10
2019-05-17T09:18:53.743Z,13.30
2019-05-17T09:21:56.659Z,13.30
2019-05-17T09:24:59.699Z,13.20
2019-05-17T09:28:03.891Z,13.20
2019-05-17T09:31:07.069Z,13.10
2019-05-17T09:34:10.839Z,13.20
2019-05-17T09:37:15.819Z,13.20
2019-05-17T09:40:20.003Z,13.20
2019-05-17T09:43:23.167Z,13.20
2019-05-17T09:46:26.160Z,13.20
2019-05-17T09:49:29.898Z,13.10
2019-05-17T09:52:32.998Z,13.20
2019-05-17T09:55:36.991Z,13.20
2019-05-17T09:58:40.020Z,13.20
2019-05-17T10:01:43.027Z,13.20
2019-05-17T10:04:45.965Z,13.30
2019-05-17T10:07:50.704Z,13.30
2019-05-17T10:11:04.966Z,13.30
2019-05-17T10:14:01.137Z,13.30
2019-05-17T10:17:03.770Z,13.40
2019-05-17T10:20:07.099Z,13.60
2019-05-17T10:23:10.664Z,13.70
2019-05-17T10:26:13.906Z,13.80
2019-05-17T10:29:16.928Z,14.00
2019-05-17T10:32:20.570Z,14.10
2019-05-17T10:35:23.674Z,14.10
2019-05-17T10:38:26.700Z,14.00
2019-05-17T10:41:30.233Z,13.90
2019-05-17T10:44:46.356Z,13.80
2019-05-17T10:47:39.708Z,13.80
2019-05-17T10:50:42.953Z,13.70
2019-05-17T10:53:45.865Z,13.70
2019-05-17T10:56:50.197Z,13.70
2019-05-17T10:59:53.311Z,13.70
2019-05-17T11:02:56.335Z,13.80
2019-05-17T11:05:59.718Z,13.70
2019-05-17T11:09:04.746Z,13.80
2019-05-17T11:12:07.867Z,13.90
2019-05-17T11:15:12.219Z,13.90
2019-05-17T11:18:15.333Z,14.00
2019-05-17T11:21:18.263Z,14.00
2019-05-17T11:24:21.165Z,14.00
2019-05-17T11:27:24.329Z,14.00
2019-05-17T11:30:27.242Z,14.00
2019-05-17T11:33:30.179Z,14.10
2019-05-17T11:36:33.140Z,14.10
2019-05-17T11:39:36.080Z,14.10
2019-05-17T11:42:39.051Z,14.20
2019-05-17T11:45:41.950Z,14.40
2019-05-17T11:48:44.880Z,14.30
2019-05-17T11:51:47.794Z,14.40
2019-05-17T11:54:50.717Z,14.40
2019-05-17T11:57:53.613Z,14.40
2019-05-17T12:00:56.860Z,14.40
2019-05-17T12:04:00.335Z,15.20
2019-05-17T12:07:03.611Z,16.10
2019-05-17T12:10:07.239Z,15.60
2019-05-17T12:13:11.259Z,15.30
2019-05-17T12:16:14.200Z,15.10
2019-05-17T12:19:17.135Z,15.10
2019-05-17T12:22:20.065Z,15.10
2019-05-17T12:25:23.020Z,15.10
2019-05-17T12:28:26.594Z,15.20
2019-05-17T12:31:29.528Z,15.10
2019-05-17T12:34:32.410Z,15.10
2019-05-17T12:37:35.639Z,15.00
2019-05-17T12:40:38.536Z,14.90
2019-05-17T12:43:41.467Z,14.80
2019-05-17T12:46:44.399Z,14.90
2019-05-17T12:49:47.307Z,15.20
2019-05-17T12:52:50.234Z,15.40
2019-05-17T12:55:53.143Z,15.50
2019-05-17T12:58:56.074Z,15.60
2019-05-17T13:02:00.091Z,15.30
2019-05-17T13:05:03.138Z,15.20
2019-05-17T13:08:06.068Z,15.10
2019-05-17T13:11:08.963Z,15.10
2019-05-17T13:14:11.892Z,15.10
2019-05-17T13:17:15.533Z,15.10
2019-05-17T13:20:18.774Z,15.00
2019-05-17T13:23:22.155Z,14.90
2019-05-17T13:26:25.048Z,15.00
2019-05-17T13:29:27.983Z,15.10
2019-05-17T13:32:30.907Z,15.20
2019-05-17T13:35:33.835Z,15.30
2019-05-17T13:38:37.884Z,15.40
2019-05-17T13:41:40.797Z,15.50
2019-05-17T13:44:43.729Z,15.50
2019-05-17T13:47:46.633Z,15.50
2019-05-17T13:50:52.073Z,15.60
2019-05-17T13:53:54.868Z,15.60
2019-05-17T13:56:57.792Z,15.70
2019-05-17T14:00:00.688Z,15.70
2019-05-17T14:03:03.929Z,15.70
2019-05-17T14:06:06.963Z,15.50
2019-05-17T14:09:09.889Z,15.40
2019-05-17T14:12:12.913Z,15.40
2019-05-17T14:15:16.239Z,15.30
2019-05-17T14:18:19.169Z,15.20
2019-05-17T14:21:22.098Z,15.10
2019-05-17T14:24:25.324Z,15.10
2019-05-17T14:27:28.269Z,15.10
2019-05-17T14:30:31.496Z,15.20
2019-05-17T14:33:34.800Z,15.20
2019-05-17T14:36:37.720Z,15.20
2019-05-17T14:39:40.668Z,15.10
2019-05-17T14:42:43.599Z,15.10
2019-05-17T14:45:46.509Z,15.00
2019-05-17T14:48:49.433Z,14.90
2019-05-17T14:51:52.325Z,14.90
2019-05-17T14:54:55.246Z,15.00
2019-05-17T14:57:58.171Z,15.00
2019-05-17T15:01:01.099Z,15.10
2019-05-17T15:04:04.389Z,15.10
2019-05-17T15:07:11.020Z,15.30
2019-05-17T15:10:12.425Z,15.30
2019-05-17T15:13:15.338Z,15.30
2019-05-17T15:16:18.651Z,15.40
2019-05-17T15:19:21.569Z,15.40
2019-05-17T15:22:24.825Z,15.30
2019-05-17T15:25:27.746Z,15.30
2019-05-17T15:28:30.655Z,15.30
2019-05-17T15:31:33.902Z,15.30
2019-05-17T15:34:36.784Z,15.40
2019-05-17T15:37:39.696Z,15.50
2019-05-17T15:40:43.456Z,15.50
2019-05-17T15:43:46.411Z,15.50
2019-05-17T15:46:49.352Z,15.50
2019-05-17T15:49:52.301Z,15.50
2019-05-17T15:52:55.231Z,15.60
2019-05-17T15:55:58.131Z,15.70
2019-05-17T15:59:01.331Z,15.70
2019-05-17T16:02:04.595Z,15.70
2019-05-17T16:05:07.743Z,15.70
2019-05-17T16:08:10.676Z,15.70
2019-05-17T16:11:13.597Z,15.60
2019-05-17T16:14:16.532Z,15.60
2019-05-17T16:17:19.476Z,15.50
2019-05-17T16:20:22.743Z,15.50
2019-05-17T16:23:25.656Z,17.50
2019-05-17T16:26:28.550Z,16.90
2019-05-17T16:29:31.495Z,16.60
2019-05-17T16:32:34.400Z,16.30
2019-05-17T16:35:37.338Z,16.20
2019-05-17T16:38:40.267Z,16.10
2019-05-17T16:41:43.200Z,16.10
2019-05-17T16:44:46.221Z,16.00
2019-05-17T16:47:49.152Z,16.00
2019-05-17T16:50:52.075Z,15.90
2019-05-17T16:53:54.992Z,15.80
2019-05-17T16:56:57.929Z,15.80
2019-05-17T17:00:00.995Z,15.80
2019-05-17T17:03:04.972Z,15.80
2019-05-17T17:06:10.353Z,16.00
2019-05-17T17:09:12.870Z,15.90
2019-05-17T17:12:16.143Z,15.80
2019-05-17T17:15:19.443Z,15.80
2019-05-17T17:18:22.360Z,15.70
2019-05-17T17:21:25.388Z,15.70
2019-05-17T17:24:28.292Z,15.80
2019-05-17T17:27:31.625Z,15.80
2019-05-17T17:30:34.583Z,15.80
2019-05-17T17:33:37.881Z,15.80
2019-05-17T17:36:41.100Z,15.80
2019-05-17T17:39:44.007Z,15.70
2019-05-17T17:42:46.999Z,15.70
2019-05-17T17:45:49.976Z,15.70
2019-05-17T17:48:53.206Z,15.70
2019-05-17T17:51:56.273Z,15.60
2019-05-17T17:54:59.568Z,15.60
2019-05-17T17:58:02.527Z,15.50
2019-05-17T18:01:05.512Z,15.50
2019-05-17T18:04:08.638Z,15.50
2019-05-17T18:07:11.542Z,15.50
2019-05-17T18:10:33.567Z,15.50
2019-05-17T18:13:36.860Z,15.40
2019-05-17T18:16:39.785Z,15.40
2019-05-17T18:19:42.712Z,15.40
2019-05-17T18:22:45.633Z,15.30
2019-05-17T18:25:48.569Z,15.20
2019-05-17T18:28:51.477Z,15.20
2019-05-17T18:31:54.629Z,15.20
2019-05-17T18:34:57.882Z,15.20
2019-05-17T18:38:00.783Z,15.10
2019-05-17T18:41:03.729Z,15.10
2019-05-17T18:44:06.675Z,15.10
2019-05-17T18:47:09.625Z,15.00
2019-05-17T18:50:13.479Z,15.00
2019-05-17T18:53:17.425Z,15.00
2019-05-17T18:56:20.513Z,15.00
2019-05-17T18:59:23.517Z,15.00
2019-05-17T19:02:27.422Z,15.00
2019-05-17T19:05:30.784Z,14.90
2019-05-17T19:08:33.707Z,14.80
2019-05-17T19:11:36.654Z,14.70
2019-05-17T19:14:42.796Z,14.70
2019-05-17T19:17:44.417Z,14.60
2019-05-17T19:20:47.361Z,14.50
2019-05-17T19:23:50.634Z,14.40
2019-05-17T19:26:53.570Z,14.40
2019-05-17T19:29:56.493Z,14.40
2019-05-17T19:32:59.439Z,14.40
2019-05-17T19:36:02.461Z,14.40
2019-05-17T19:39:06.048Z,14.30
2019-05-17T19:42:09.072Z,14.30
2019-05-17T19:45:14.460Z,14.20
2019-05-17T19:48:19.733Z,14.20
2019-05-17T19:51:22.238Z,14.20
2019-05-17T19:54:25.163Z,14.20
2019-05-17T19:57:28.501Z,14.20
2019-05-17T20:00:32.817Z,14.10
2019-05-17T20:03:35.905Z,14.10
2019-05-17T20:06:38.846Z,14.00
2019-05-17T20:09:41.894Z,14.00
2019-05-17T20:12:45.358Z,13.90
2019-05-17T20:15:48.291Z,13.90
2019-05-17T20:18:51.222Z,14.00
2019-05-17T20:21:54.116Z,13.90
2019-05-17T20:24:57.056Z,13.90
2019-05-17T20:28:00.670Z,13.80
2019-05-17T20:31:03.981Z,13.90
2019-05-17T20:34:06.904Z,13.90
2019-05-17T20:37:09.811Z,13.90
2019-05-17T20:40:14.210Z,13.90
2019-05-17T20:43:17.118Z,13.80
2019-05-17T20:46:20.147Z,13.80
2019-05-17T20:49:23.360Z,13.70
2019-05-17T20:52:26.291Z,13.60
2019-05-17T20:55:29.565Z,13.50
2019-05-17T20:58:32.572Z,13.60
2019-05-17T21:01:35.550Z,13.60
2019-05-17T21:04:38.472Z,13.60
2019-05-17T21:07:41.429Z,13.50
2019-05-17T21:10:44.371Z,13.40
2019-05-17T21:13:47.324Z,13.50
2019-05-17T21:16:51.357Z,13.50
2019-05-17T21:19:54.288Z,13.50
2019-05-17T21:22:57.262Z,13.30
2019-05-17T21:26:00.218Z,13.40
2019-05-17T21:29:03.183Z,13.50
2019-05-17T21:32:06.082Z,13.50
2019-05-17T21:35:09.119Z,13.50
2019-05-17T21:38:12.070Z,13.40
2019-05-17T21:41:15.280Z,13.40
2019-05-17T21:44:18.213Z,13.20
2019-05-17T21:47:21.132Z,13.10
2019-05-17T21:50:24.063Z,13.10
2019-05-17T21:53:26.977Z,13.00
2019-05-17T21:56:29.900Z,13.00
2019-05-17T21:59:32.864Z,13.00
2019-05-17T22:02:35.895Z,13.10
2019-05-17T22:05:38.892Z,13.10
2019-05-17T22:08:41.804Z,13.10
2019-05-17T22:11:47.793Z,13.00
2019-05-17T22:14:50.715Z,13.00
2019-05-17T22:17:53.700Z,13.10
2019-05-17T22:20:56.950Z,13.10
2019-05-17T22:24:00.147Z,13.20
2019-05-17T22:27:03.193Z,13.00
2019-05-17T22:30:06.858Z,13.00
2019-05-17T22:33:09.871Z,13.00
2019-05-17T22:36:12.771Z,13.00
2019-05-17T22:39:15.909Z,12.90
2019-05-17T22:42:19.219Z,12.80
2019-05-17T22:45:23.230Z,12.80
2019-05-17T22:48:26.162Z,12.70
2019-05-17T22:51:29.069Z,12.60
2019-05-17T22:54:31.986Z,12.60
2019-05-17T22:57:34.908Z,12.60
2019-05-17T23:00:37.809Z,12.50
2019-05-17T23:03:40.742Z,12.50
2019-05-17T23:06:43.643Z,12.70
2019-05-17T23:09:46.564Z,12.70
2019-05-17T23:12:49.525Z,12.70
2019-05-17T23:16:01.973Z,12.70
2019-05-17T23:19:09.195Z,12.70
2019-05-17T23:22:12.602Z,12.60
2019-05-17T23:25:15.537Z,12.60
2019-05-17T23:28:18.449Z,12.50
2019-05-17T23:31:21.366Z,12.40
2019-05-17T23:34:24.285Z,12.50
2019-05-17T23:37:27.279Z,12.60
2019-05-17T23:40:30.256Z,12.60
2019-05-17T23:43:33.192Z,12.60
2019-05-17T23:46:36.147Z,12.60
2019-05-17T23:49:39.047Z,12.60
2019-05-17T23:52:41.994Z,12.60
2019-05-17T23:55:44.910Z,12.50
2019-05-17T23:58:47.862Z,12.50
